Time;durP1;ratioP1;P1;durP2;ratioP2;P2;SDS_P1;SDS_P2;PMS_P1;PMS_P2;Temp;Humidity;BMP_temperature;BMP_pressure;BME280_temperature;BME280_humidity;BME280_pressure;Samples;Min_cycle;Max_cycle;Signal;HPM_P1;HPM_P2
2023/10/05 00:01:08;;;;;;;12.30;4.90;;;;;;;10.35;89.10;101166.09;109209;276;38137;-70
2023/10/05 00:03:52;;;;;;;9.30;4.80;;;;;;;10.35;89.22;101165.91;109163;276;39320;-69
2023/10/05 00:06:31;;;;;;;8.80;5.00;;;;;;;10.33;89.17;101163.49;109042;276;38260;-69
2023/10/05 00:09:11;;;;;;;9.10;4.80;;;;;;;10.34;89.29;101162.08;109250;276;38315;-69
2023/10/05 00:11:55;;;;;;;9.60;5.20;;;;;;;10.36;89.14;101160.31;109302;276;38544;-69
2023/10/05 00:14:33;;;;;;;9.00;5.10;;;;;;;10.37;89.15;101153.83;109246;276;38386;-69
2023/10/05 00:17:10;;;;;;;8.30;4.30;;;;;;;10.40;89.50;101150.27;109252;276;38790;-69
2023/10/05 00:19:46;;;;;;;9.30;4.30;;;;;;;10.43;89.47;101149.31;109273;276;39365;-69
2023/10/05 00:22:22;;;;;;;7.20;4.70;;;;;;;10.44;89.51;101146.84;109338;276;38497;-69
2023/10/05 00:25:06;;;;;;;8.80;4.70;;;;;;;10.45;89.31;101145.08;109250;276;38820;-69
2023/10/05 00:27:44;;;;;;;7.70;4.70;;;;;;;10.45;89.19;101137.92;109274;276;38276;-69
2023/10/05 00:30:27;;;;;;;11.10;4.90;;;;;;;10.46;89.26;101131.45;109240;276;38735;-69
2023/10/05 00:33:04;;;;;;;8.20;4.40;;;;;;;10.47;89.17;101131.42;109262;276;39310;-69
2023/10/05 00:35:40;;;;;;;11.70;5.30;;;;;;;10.46;89.05;101129.19;108947;276;38723;-69
2023/10/05 00:38:18;;;;;;;11.70;4.80;;;;;;;10.44;88.96;101126.79;109217;276;38469;-70
2023/10/05 00:40:57;;;;;;;8.40;5.00;;;;;;;10.43;89.06;101124.19;109119;276;39886;-70
2023/10/05 00:43:33;;;;;;;9.80;5.10;;;;;;;10.44;89.04;101126.79;109081;276;38450;-70
2023/10/05 00:46:09;;;;;;;8.70;4.60;;;;;;;10.43;89.04;101130.83;109075;276;38448;-70
2023/10/05 00:49:00;;;;;;;6.20;4.10;;;;;;;10.43;88.94;101130.48;109116;276;38271;-70
2023/10/05 00:51:39;;;;;;;8.40;4.50;;;;;;;10.41;88.90;101127.39;109112;276;38185;-70
2023/10/05 00:54:18;;;;;;;7.60;4.50;;;;;;;10.38;88.86;101123.61;109089;276;39344;-70
2023/10/05 00:56:53;;;;;;;9.30;5.10;;;;;;;10.37;88.81;101124.86;109109;276;39619;-70
2023/10/05 00:59:31;;;;;;;8.10;4.70;;;;;;;10.38;89.05;101123.27;109120;276;39248;-69
2023/10/05 01:02:16;;;;;;;7.50;5.00;;;;;;;10.38;88.96;101123.45;109043;276;175084;-70
2023/10/05 01:04:55;;;;;;;8.40;5.10;;;;;;;10.39;89.19;101117.67;108981;276;38751;-69
2023/10/05 01:07:49;;;;;;;8.50;4.50;;;;;;;10.38;89.13;101116.63;109142;276;38570;-69
2023/10/05 01:10:40;;;;;;;8.40;4.50;;;;;;;10.39;89.12;101115.05;109155;276;39614;-69
2023/10/05 01:13:43;;;;;;;8.40;4.80;;;;;;;10.40;89.32;101111.02;109028;276;38223;-69
2023/10/05 01:16:25;;;;;;;9.30;4.40;;;;;;;10.43;89.35;101111.61;109149;276;38299;-69
2023/10/05 01:19:08;;;;;;;9.10;5.10;;;;;;;10.44;89.40;101111.08;109110;276;38954;-71
2023/10/05 01:21:45;;;;;;;9.40;5.50;;;;;;;10.44;89.21;101109.68;109146;276;39718;-70
2023/10/05 01:24:23;;;;;;;8.60;4.90;;;;;;;10.44;89.37;101109.50;109110;276;38787;-69
2023/10/05 01:27:10;;;;;;;9.40;4.80;;;;;;;10.46;89.39;101106.34;109147;276;38454;-69
2023/10/05 01:29:49;;;;;;;9.00;4.50;;;;;;;10.48;89.45;101099.98;109155;276;39995;-69
2023/10/05 01:32:27;;;;;;;8.20;4.50;;;;;;;10.51;89.18;101100.27;109112;276;38278;-71
2023/10/05 01:35:09;;;;;;;7.90;4.80;;;;;;;10.51;89.26;101102.16;109081;276;38751;-69
2023/10/05 01:37:45;;;;;;;11.70;4.90;;;;;;;10.53;89.37;101095.99;109103;276;38175;-69
2023/10/05 01:40:30;;;;;;;10.90;5.00;;;;;;;10.54;89.10;101094.23;109098;276;38438;-69
2023/10/05 01:43:06;;;;;;;11.60;5.70;;;;;;;10.54;89.24;101089.54;109083;276;39920;-70
2023/10/05 01:45:43;;;;;;;9.40;4.80;;;;;;;10.56;89.20;101088.62;109210;276;175353;-70
2023/10/05 01:48:26;;;;;;;9.30;4.40;;;;;;;10.59;89.29;101087.66;109335;276;38456;-69
2023/10/05 01:51:10;;;;;;;8.60;4.60;;;;;;;10.58;89.05;101085.24;109294;276;38555;-70
2023/10/05 01:53:46;;;;;;;9.40;4.80;;;;;;;10.57;88.80;101083.02;109310;276;38178;-69
2023/10/05 01:56:29;;;;;;;7.70;4.20;;;;;;;10.55;88.61;101079.05;109161;276;39794;-70
2023/10/05 01:59:14;;;;;;;9.00;4.90;;;;;;;10.51;88.35;101081.60;108985;277;38222;-69
2023/10/05 02:01:56;;;;;;;7.20;4.80;;;;;;;10.48;88.38;101082.02;108916;276;38662;-70
2023/10/05 02:04:38;;;;;;;8.20;4.50;;;;;;;10.45;88.54;101077.05;109035;277;38601;-70
2023/10/05 02:07:15;;;;;;;11.80;4.90;;;;;;;10.43;88.68;101079.55;108997;277;38600;-69
2023/10/05 02:09:50;;;;;;;7.50;4.30;;;;;;;10.44;88.75;101077.95;109016;276;39404;-69
2023/10/05 02:12:29;;;;;;;8.70;4.60;;;;;;;10.44;88.68;101075.67;108979;276;39329;-68
2023/10/05 02:15:05;;;;;;;8.70;4.60;;;;;;;10.41;88.48;101073.13;108962;276;38188;-70
2023/10/05 02:17:46;;;;;;;11.30;4.80;;;;;;;10.37;88.43;101067.84;108835;276;172274;-69
2023/10/05 02:20:45;;;;;;;8.50;4.60;;;;;;;10.35;88.44;101068.59;109239;276;38168;-69
2023/10/05 02:23:34;;;;;;;9.00;4.40;;;;;;;10.31;88.66;101069.90;109211;276;38624;-70
2023/10/05 02:26:23;;;;;;;9.80;4.90;;;;;;;10.30;88.84;101068.72;109272;276;38301;-70
2023/10/05 02:28:57;;;;;;;10.50;4.80;;;;;;;10.27;88.70;101068.59;109240;276;38957;-72
2023/10/05 02:31:31;;;;;;;10.30;5.20;;;;;;;10.24;88.84;101064.66;109329;276;38442;-69
2023/10/05 02:34:07;;;;;;;8.60;4.60;;;;;;;10.22;88.93;101065.20;109269;276;38147;-70
2023/10/05 02:36:43;;;;;;;8.90;4.40;;;;;;;10.23;89.02;101064.70;109299;276;38165;-70
2023/10/05 02:39:21;;;;;;;7.70;4.50;;;;;;;10.22;89.08;101062.95;109307;276;38359;-70
2023/10/05 02:41:58;;;;;;;7.90;5.10;;;;;;;10.22;89.05;101065.21;109308;276;39780;-69
2023/10/05 02:44:37;;;;;;;;;;;;;;;10.24;89.20;101064.84;109305;276;38176;-69
2023/10/05 02:47:14;;;;;;;7.30;5.10;;;;;;;10.21;89.38;101067.50;109304;276;39341;-69
2023/10/05 02:49:57;;;;;;;8.90;4.50;;;;;;;10.21;89.31;101064.02;109309;276;38513;-69
2023/10/05 02:52:33;;;;;;;9.30;4.90;;;;;;;10.19;89.21;101064.23;109264;276;38161;-69
2023/10/05 02:55:14;;;;;;;8.10;4.80;;;;;;;10.19;89.16;101063.38;109267;276;39379;-69
2023/10/05 02:57:48;;;;;;;;;;;;;;;10.18;89.18;101068.46;108545;276;708510;-69
2023/10/05 03:00:26;;;;;;;9.80;5.10;;;;;;;10.15;89.40;101066.61;109170;276;38725;-69
2023/10/05 03:03:06;;;;;;;7.50;4.70;;;;;;;10.17;89.51;101059.75;108938;276;39372;-70
2023/10/05 03:05:43;;;;;;;9.90;4.80;;;;;;;10.20;89.53;101059.52;109191;276;38618;-69
2023/10/05 03:08:18;;;;;;;8.00;4.70;;;;;;;10.22;89.70;101065.04;109198;276;38633;-70
2023/10/05 03:10:54;;;;;;;8.90;4.40;;;;;;;10.24;89.68;101063.79;109030;276;39495;-68
2023/10/05 03:13:28;;;;;;;8.20;4.40;;;;;;;10.27;89.54;101059.54;109208;276;38250;-69
2023/10/05 03:16:10;;;;;;;8.10;4.60;;;;;;;10.30;89.45;101055.29;109174;276;39481;-69
2023/10/05 03:18:49;;;;;;;8.80;5.10;;;;;;;10.32;89.47;101048.25;109194;276;38393;-70
2023/10/05 03:21:31;;;;;;;9.10;5.30;;;;;;;10.32;89.48;101043.19;109177;276;38442;-69
2023/10/05 03:24:07;;;;;;;8.90;5.10;;;;;;;10.36;89.50;101041.55;109188;276;38581;-69
2023/10/05 03:26:51;;;;;;;7.00;4.60;;;;;;;10.37;89.24;101038.52;108988;276;38283;-69
2023/10/05 03:29:30;;;;;;;6.40;4.20;;;;;;;10.38;89.24;101037.13;109240;276;38829;-70
2023/10/05 03:32:13;;;;;;;8.40;4.80;;;;;;;10.37;89.16;101036.25;109219;276;39615;-69
2023/10/05 03:34:55;;;;;;;8.50;4.80;;;;;;;10.37;89.16;101031.23;109248;276;38379;-69
2023/10/05 03:37:39;;;;;;;8.00;5.30;;;;;;;10.37;89.08;101024.42;109275;276;38795;-69
2023/10/05 03:40:22;;;;;;;8.50;4.80;;;;;;;10.38;89.01;101027.70;109213;276;39431;-70
2023/10/05 03:42:59;;;;;;;8.30;4.70;;;;;;;10.36;88.91;101023.55;109212;276;39344;-69
2023/10/05 03:45:33;;;;;;;8.10;4.80;;;;;;;10.35;88.98;101020.98;109253;276;39061;-69
2023/10/05 03:48:10;;;;;;;8.70;5.20;;;;;;;10.37;88.99;101019.20;109028;276;38452;-71
2023/10/05 03:50:47;;;;;;;10.20;4.80;;;;;;;10.34;88.81;101024.65;109212;276;39115;-70
2023/10/05 03:53:24;;;;;;;8.60;5.30;;;;;;;10.33;88.82;101023.98;109195;276;38235;-70
2023/10/05 03:56:02;;;;;;;9.90;5.00;;;;;;;10.34;88.92;101027.11;109148;276;176271;-70
2023/10/05 03:58:39;;;;;;;10.40;5.20;;;;;;;10.36;88.95;101025.66;109027;276;38581;-69
2023/10/05 04:01:19;;;;;;;9.70;5.50;;;;;;;10.32;88.62;101024.02;109246;276;39456;-69
2023/10/05 04:04:00;;;;;;;8.70;5.40;;;;;;;10.31;88.93;101024.92;109067;276;39685;-71
2023/10/05 04:06:54;;;;;;;8.40;4.80;;;;;;;10.28;88.64;101027.07;109293;276;38911;-69
2023/10/05 04:09:29;;;;;;;10.40;5.20;;;;;;;10.25;88.58;101028.55;109218;276;38798;-70
2023/10/05 04:12:10;;;;;;;10.10;4.70;;;;;;;10.25;88.73;101028.38;109257;276;39360;-72
2023/10/05 04:14:49;;;;;;;7.70;4.80;;;;;;;10.22;88.62;101031.04;108984;276;39012;-70
2023/10/05 04:17:21;;;;;;;;;;;;;;;10.19;88.42;101028.34;109300;276;39618;-70
2023/10/05 04:20:06;;;;;;;10.00;5.40;;;;;;;10.13;88.82;101028.14;109225;276;38332;-69
2023/10/05 04:22:43;;;;;;;11.40;5.50;;;;;;;10.11;88.86;101024.01;109214;276;39311;-69
2023/10/05 04:25:23;;;;;;;7.80;5.40;;;;;;;10.07;88.81;101014.33;108987;276;39106;-69
2023/10/05 04:28:00;;;;;;;9.50;4.90;;;;;;;10.06;88.78;101018.73;109218;276;38246;-69
2023/10/05 04:30:38;;;;;;;9.80;5.40;;;;;;;10.05;89.01;101014.39;109313;276;38871;-71
2023/10/05 04:33:14;;;;;;;10.40;5.20;;;;;;;10.05;88.99;101013.33;109249;276;38167;-69
2023/10/05 04:35:53;;;;;;;10.00;5.50;;;;;;;10.05;88.94;101011.60;109278;276;38780;-69
2023/10/05 04:38:30;;;;;;;9.90;5.40;;;;;;;10.04;89.17;101005.54;109007;276;38179;-69
2023/10/05 04:41:04;;;;;;;9.70;5.20;;;;;;;10.01;88.88;101005.77;108861;276;172759;-70
2023/10/05 04:43:39;;;;;;;7.30;5.10;;;;;;;9.98;88.91;101000.09;109198;276;38928;-69
2023/10/05 04:46:17;;;;;;;8.90;5.70;;;;;;;9.96;88.98;100995.97;109196;276;38645;-70
2023/10/05 04:49:07;;;;;;;10.10;5.60;;;;;;;9.96;89.06;100994.92;109136;276;39331;-70
2023/10/05 04:51:56;;;;;;;11.30;5.80;;;;;;;9.96;89.18;100989.52;109156;276;38194;-71
2023/10/05 04:54:38;;;;;;;11.90;6.20;;;;;;;9.96;89.45;100987.78;109135;276;38626;-70
2023/10/05 04:57:34;;;;;;;11.30;5.40;;;;;;;9.97;89.49;100982.89;109174;276;39409;-69
2023/10/05 05:03:17;;;;;;;10.40;5.50;;;;;;;9.99;89.47;100971.48;109162;276;38369;-69
2023/10/05 05:06:08;;;;;;;9.00;5.70;;;;;;;10.02;89.60;100970.71;109147;276;38160;-69
2023/10/05 05:08:43;;;;;;;12.30;5.90;;;;;;;10.04;89.68;100967.17;109162;276;39003;-69
2023/10/05 05:11:25;;;;;;;12.70;5.20;;;;;;;10.06;89.86;100961.21;109127;276;38821;-69
2023/10/05 05:14:00;;;;;;;11.70;5.50;;;;;;;10.08;90.04;100949.45;109160;276;38232;-68
2023/10/05 05:16:44;;;;;;;10.90;5.40;;;;;;;10.11;89.99;100951.32;109160;276;39465;-69
2023/10/05 05:19:21;;;;;;;10.00;5.60;;;;;;;10.16;90.10;100947.34;108622;276;902540;-69
2023/10/05 05:21:59;;;;;;;10.40;5.70;;;;;;;10.22;89.93;100945.06;109246;276;39438;-69
2023/10/05 05:24:39;;;;;;;15.50;6.80;;;;;;;10.28;90.03;100942.85;109252;276;38740;-70
2023/10/05 05:27:21;;;;;;;;;;;;;;;10.35;90.03;100942.52;109302;276;39365;-69
2023/10/05 05:29:55;;;;;;;13.00;6.30;;;;;;;10.38;90.20;100937.02;109257;276;38474;-70
2023/10/05 05:32:32;;;;;;;10.70;5.90;;;;;;;10.42;90.04;100935.31;109266;276;38163;-70
2023/10/05 05:35:08;;;;;;;9.40;5.60;;;;;;;10.49;90.23;100934.41;109137;276;175395;-69
2023/10/05 05:37:43;;;;;;;10.60;5.90;;;;;;;10.57;90.05;100935.57;109292;276;39291;-72
2023/10/05 05:40:28;;;;;;;10.70;5.70;;;;;;;10.66;89.98;100934.77;109280;276;39883;-70
2023/10/05 05:43:07;;;;;;;10.20;5.90;;;;;;;10.76;89.95;100928.90;109279;276;39068;-71
2023/10/05 05:45:43;;;;;;;9.60;5.60;;;;;;;10.84;89.75;100932.15;109308;276;39709;-70
2023/10/05 05:48:18;;;;;;;9.20;5.70;;;;;;;11.01;90.45;100929.55;109307;276;38770;-71
2023/10/05 05:50:53;;;;;;;9.10;5.30;;;;;;;11.20;90.37;100930.35;108984;276;39411;-70
2023/10/05 05:53:28;;;;;;;11.50;6.10;;;;;;;11.32;89.52;100935.55;109236;276;38452;-69
2023/10/05 05:56:03;;;;;;;12.00;6.00;;;;;;;11.43;89.13;100936.08;109300;276;38965;-69
2023/10/05 05:58:44;;;;;;;10.00;5.40;;;;;;;11.55;88.77;100940.42;109047;276;39089;-69
2023/10/05 06:01:22;;;;;;;11.30;6.50;;;;;;;11.70;88.66;100938.35;109266;276;39212;-70
2023/10/05 06:03:59;;;;;;;11.50;6.70;;;;;;;11.82;88.20;100932.19;109262;276;39330;-69
2023/10/05 06:06:37;;;;;;;9.80;5.30;;;;;;;11.94;87.79;100928.30;109290;276;38253;-70
2023/10/05 06:09:19;;;;;;;10.30;5.60;;;;;;;12.05;87.39;100920.04;109345;276;38375;-70
2023/10/05 06:11:56;;;;;;;15.00;5.70;;;;;;;12.19;86.70;100917.26;109068;276;39789;-69
2023/10/05 06:14:40;;;;;;;13.50;5.20;;;;;;;12.33;86.27;100915.85;109242;276;38436;-69
2023/10/05 06:17:23;;;;;;;10.20;6.10;;;;;;;12.47;85.72;100913.27;109235;276;38877;-70
2023/10/05 06:19:58;;;;;;;11.00;6.00;;;;;;;12.55;84.92;100912.10;109206;276;38296;-70
2023/10/05 06:22:33;;;;;;;12.00;5.60;;;;;;;12.56;84.49;100913.81;109310;276;38237;-69
2023/10/05 06:25:15;;;;;;;13.00;5.30;;;;;;;12.56;83.84;100914.30;109051;276;38477;-69
2023/10/05 06:27:51;;;;;;;16.60;6.50;;;;;;;12.57;83.33;100908.50;109312;276;38806;-72
2023/10/05 06:30:28;;;;;;;12.10;6.10;;;;;;;12.58;83.31;100903.73;109300;276;38357;-71
2023/10/05 06:33:07;;;;;;;11.00;5.60;;;;;;;12.62;83.16;100909.19;109256;276;38746;-71
2023/10/05 06:35:41;;;;;;;10.80;5.60;;;;;;;12.63;82.82;100905.84;109257;276;38651;-70
2023/10/05 06:38:17;;;;;;;11.70;5.50;;;;;;;12.65;82.48;100902.09;109227;276;39165;-69
2023/10/05 06:40:53;;;;;;;12.80;5.50;;;;;;;12.68;82.64;100907.05;109238;276;38438;-68
2023/10/05 06:43:28;;;;;;;11.40;5.80;;;;;;;12.73;82.41;100906.88;109215;276;38827;-72
2023/10/05 06:46:14;;;;;;;11.30;5.60;;;;;;;12.75;82.25;100910.29;109014;276;38454;-70
2023/10/05 06:48:55;;;;;;;11.90;6.10;;;;;;;12.74;81.90;100911.20;109018;276;38438;-70
2023/10/05 06:51:33;;;;;;;10.70;6.00;;;;;;;12.72;81.62;100915.97;109281;269;38376;-70
2023/10/05 06:54:11;;;;;;;13.30;5.70;;;;;;;12.72;81.52;100920.20;109271;276;38400;-72
2023/10/05 06:56:49;;;;;;;9.90;5.50;;;;;;;12.72;81.21;100919.67;109155;276;175585;-70
2023/10/05 06:59:25;;;;;;;11.20;6.00;;;;;;;12.75;81.52;100916.23;109012;276;38852;-72
2023/10/05 07:02:02;;;;;;;11.60;5.50;;;;;;;12.83;81.81;100911.00;109002;276;39482;-72
2023/10/05 07:04:44;;;;;;;12.00;5.80;;;;;;;13.01;82.14;100907.69;109294;276;38667;-70
2023/10/05 07:07:20;;;;;;;10.50;5.60;;;;;;;13.24;82.19;100904.88;109299;276;38582;-72
2023/10/05 07:09:56;;;;;;;11.90;5.40;;;;;;;13.50;82.04;100904.49;109039;276;39825;-70
2023/10/05 07:12:35;;;;;;;10.40;6.00;;;;;;;13.77;81.78;100904.59;109066;276;38222;-72
2023/10/05 07:15:19;;;;;;;11.50;5.90;;;;;;;13.98;80.35;100902.81;109263;276;38376;-70
2023/10/05 07:17:59;;;;;;;9.40;5.60;;;;;;;14.11;79.41;100899.27;109207;276;38141;-70
2023/10/05 07:20:36;;;;;;;9.70;5.60;;;;;;;14.18;79.20;100905.41;108996;276;39467;-71
2023/10/05 07:23:12;;;;;;;9.50;5.60;;;;;;;14.24;78.12;100904.11;109180;276;38470;-70
2023/10/05 07:25:46;;;;;;;9.60;5.40;;;;;;;14.28;77.90;100903.77;109199;276;38715;-70
2023/10/05 07:28:27;;;;;;;10.90;5.90;;;;;;;14.34;77.47;100902.29;109184;276;38193;-69
2023/10/05 07:31:06;;;;;;;12.10;5.60;;;;;;;14.41;76.92;100901.60;109210;276;38157;-70
2023/10/05 07:33:45;;;;;;;12.00;5.50;;;;;;;14.48;76.93;100899.55;109273;276;38506;-70
2023/10/05 07:36:21;;;;;;;8.30;5.30;;;;;;;14.56;76.71;100896.21;109227;276;38260;-70
2023/10/05 07:38:57;;;;;;;11.60;5.60;;;;;;;14.62;75.92;100888.19;109253;276;38177;-71
2023/10/05 07:41:33;;;;;;;8.70;5.30;;;;;;;14.65;74.54;100880.31;109238;276;39963;-69
2023/10/05 07:44:10;;;;;;;10.00;5.80;;;;;;;14.67;74.64;100882.33;109264;276;39628;-69
2023/10/05 07:46:45;;;;;;;11.80;5.40;;;;;;;14.71;74.57;100879.33;109278;276;38775;-69
2023/10/05 07:49:20;;;;;;;8.00;5.60;;;;;;;14.77;74.51;100875.71;109174;276;38427;-71
2023/10/05 07:51:57;;;;;;;9.00;5.40;;;;;;;14.90;74.44;100876.35;109219;276;38964;-70
2023/10/05 07:54:38;;;;;;;11.10;5.20;;;;;;;15.06;74.46;100877.52;109174;276;39354;-71
2023/10/05 07:57:17;;;;;;;10.50;5.40;;;;;;;15.36;74.21;100871.24;109218;276;38360;-69
2023/10/05 07:59:56;;;;;;;11.10;6.10;;;;;;;15.84;73.86;100867.09;109198;276;38743;-69
2023/10/05 08:02:39;;;;;;;9.60;5.20;;;;;;;16.24;72.71;100862.17;109227;276;39381;-71
2023/10/05 08:05:15;;;;;;;8.60;5.60;;;;;;;16.85;72.12;100855.69;109048;276;175009;-70
2023/10/05 08:07:58;;;;;;;8.70;5.10;;;;;;;17.31;69.75;100854.77;109130;276;38321;-70
2023/10/05 08:10:36;;;;;;;7.40;4.50;;;;;;;17.61;68.94;100857.11;109070;276;38308;-70
2023/10/05 08:13:18;;;;;;;9.90;5.20;;;;;;;17.71;66.80;100849.60;109207;276;39638;-70
2023/10/05 08:15:56;;;;;;;8.30;4.80;;;;;;;17.80;66.18;100845.05;109221;276;38192;-70
2023/10/05 08:18:38;;;;;;;8.70;4.40;;;;;;;17.90;65.52;100846.56;109230;276;38341;-70
2023/10/05 08:21:17;;;;;;;8.70;4.90;;;;;;;17.80;63.31;100842.92;109192;276;38272;-71
2023/10/05 08:23:53;;;;;;;8.30;4.80;;;;;;;17.58;63.57;100844.89;109187;276;38477;-71
2023/10/05 08:26:30;;;;;;;8.90;5.20;;;;;;;17.36;63.31;100845.88;109198;276;38338;-72
2023/10/05 08:29:06;;;;;;;8.00;4.80;;;;;;;17.11;63.55;100841.86;109216;276;38191;-69
2023/10/05 08:31:41;;;;;;;7.90;4.40;;;;;;;16.92;64.08;100845.55;109296;276;38492;-72
2023/10/05 08:34:20;;;;;;;8.10;4.60;;;;;;;16.79;64.66;100837.83;109259;276;39891;-72
2023/10/05 08:36:54;;;;;;;7.50;4.10;;;;;;;16.70;65.11;100839.20;109260;276;38132;-70
2023/10/05 08:39:37;;;;;;;8.10;4.30;;;;;;;16.65;64.55;100840.04;109202;276;38332;-69
2023/10/05 08:42:12;;;;;;;8.50;4.40;;;;;;;16.58;65.13;100833.75;109271;276;38481;-72
2023/10/05 08:44:47;;;;;;;6.70;4.10;;;;;;;16.51;65.32;100838.34;109218;276;38366;-71
2023/10/05 08:47:36;;;;;;;6.90;4.30;;;;;;;16.43;64.84;100834.17;109188;276;38820;-73
2023/10/05 08:50:15;;;;;;;10.40;4.20;;;;;;;16.39;64.95;100838.09;108473;276;893814;-71
2023/10/05 08:52:52;;;;;;;7.50;4.20;;;;;;;16.44;65.23;100837.86;109180;276;38234;-70
2023/10/05 08:55:27;;;;;;;12.10;5.30;;;;;;;16.50;65.45;100834.86;109198;276;38798;-71
2023/10/05 08:58:04;;;;;;;9.40;4.80;;;;;;;16.59;65.84;100827.17;109114;276;39120;-70
2023/10/05 09:00:45;;;;;;;7.90;4.10;;;;;;;16.67;65.68;100820.02;109134;276;39818;-73
2023/10/05 09:06:20;;;;;;;9.50;4.50;;;;;;;16.80;65.05;100823.69;109181;276;39499;-71
2023/10/05 09:09:07;;;;;;;8.50;4.50;;;;;;;16.83;63.88;100822.13;109097;276;39691;-71
2023/10/05 09:11:41;;;;;;;8.90;4.60;;;;;;;16.85;63.98;100814.80;109166;276;39697;-70
2023/10/05 09:14:23;;;;;;;7.20;4.20;;;;;;;16.91;64.38;100816.71;109189;276;38151;-70
2023/10/05 09:17:07;;;;;;;9.90;4.40;;;;;;;17.02;64.28;100812.73;109163;276;39264;-72
2023/10/05 09:19:46;;;;;;;10.90;4.60;;;;;;;17.13;63.63;100814.27;109007;276;39686;-72
2023/10/05 09:22:24;;;;;;;7.20;4.00;;;;;;;17.20;63.55;100819.48;109160;276;38562;-71
2023/10/05 09:25:15;;;;;;;6.50;4.10;;;;;;;17.24;62.93;100817.11;109160;276;39606;-70
2023/10/05 09:27:56;;;;;;;9.70;5.30;;;;;;;17.18;62.15;100819.42;108315;276;897162;-71
2023/10/05 09:30:31;;;;;;;7.90;4.50;;;;;;;17.09;62.49;100813.77;109008;276;38396;-71
2023/10/05 09:33:15;;;;;;;9.80;4.70;;;;;;;17.04;62.92;100815.81;109098;276;39886;-71
2023/10/05 09:35:49;;;;;;;8.20;4.10;;;;;;;16.99;62.20;100809.59;109055;276;38230;-71
2023/10/05 09:38:25;;;;;;;9.10;4.80;;;;;;;16.93;62.48;100812.01;109095;276;39197;-71
2023/10/05 09:41:02;;;;;;;9.20;5.10;;;;;;;16.91;62.56;100804.42;109134;276;39262;-70
2023/10/05 09:43:38;;;;;;;6.90;4.60;;;;;;;16.90;62.64;100808.17;108853;276;175025;-70
2023/10/05 09:46:15;;;;;;;9.30;4.70;;;;;;;16.93;62.96;100804.45;109135;276;39516;-70
2023/10/05 09:48:50;;;;;;;6.70;4.30;;;;;;;16.96;62.87;100806.95;108975;276;40956;-70
2023/10/05 09:51:27;;;;;;;10.30;5.00;;;;;;;16.95;62.61;100803.44;109000;276;38623;-70
2023/10/05 09:54:10;;;;;;;10.40;4.90;;;;;;;16.95;62.19;100799.41;109156;276;38258;-70
2023/10/05 09:56:50;;;;;;;10.60;5.30;;;;;;;16.98;62.67;100798.85;109185;276;39347;-71
2023/10/05 09:59:28;;;;;;;9.00;4.70;;;;;;;17.01;62.38;100796.92;109126;276;38313;-71
2023/10/05 10:02:14;;;;;;;8.30;4.00;;;;;;;17.01;61.53;100797.86;109160;276;38791;-69
2023/10/05 10:04:53;;;;;;;7.50;3.80;;;;;;;16.99;61.65;100802.15;109119;276;39299;-70
2023/10/05 10:07:31;;;;;;;7.40;4.10;;;;;;;17.00;62.00;100803.15;109185;276;38432;-69
2023/10/05 10:10:11;;;;;;;7.00;3.70;;;;;;;17.04;60.99;100805.77;109222;276;38433;-70
2023/10/05 10:12:46;;;;;;;8.00;3.70;;;;;;;17.09;61.20;100800.21;109241;276;38919;-71
2023/10/05 10:15:36;;;;;;;7.20;3.60;;;;;;;17.13;60.93;100805.41;109222;276;39986;-71
2023/10/05 10:18:15;;;;;;;7.80;3.90;;;;;;;17.16;60.97;100799.77;109226;276;38392;-71
2023/10/05 10:20:57;;;;;;;10.50;4.50;;;;;;;17.22;60.44;100800.64;106994;276;3013535;-71
2023/10/05 10:23:35;;;;;;;12.00;4.50;;;;;;;17.29;60.59;100798.13;109318;276;38231;-70
2023/10/05 10:26:16;;;;;;;6.60;3.80;;;;;;;17.34;60.78;100792.71;109278;276;38360;-71
2023/10/05 10:28:57;;;;;;;8.00;4.00;;;;;;;17.36;60.06;100784.31;109278;276;39512;-71
2023/10/05 10:31:42;;;;;;;8.90;4.20;;;;;;;17.37;60.25;100787.58;109324;276;38179;-70
2023/10/05 10:34:30;;;;;;;6.90;4.10;;;;;;;17.38;60.21;100788.23;109284;276;39309;-72
2023/10/05 10:37:10;;;;;;;8.60;4.10;;;;;;;17.37;59.77;100776.16;109293;276;39471;-71
2023/10/05 10:39:49;;;;;;;8.00;3.80;;;;;;;17.33;59.49;100774.11;109282;276;38920;-71
2023/10/05 10:42:26;;;;;;;7.80;3.50;;;;;;;17.27;60.02;100775.33;109260;276;38332;-71
2023/10/05 10:45:01;;;;;;;8.30;4.00;;;;;;;17.24;59.82;100769.84;109244;276;38736;-71
2023/10/05 10:47:44;;;;;;;8.40;3.90;;;;;;;17.21;59.94;100772.52;108968;276;38478;-71
2023/10/05 10:50:29;;;;;;;9.40;4.70;;;;;;;17.15;59.78;100769.70;109256;276;38494;-71
2023/10/05 10:53:04;;;;;;;11.10;4.80;;;;;;;17.08;59.44;100763.05;109278;276;38190;-72
2023/10/05 10:55:39;;;;;;;9.40;4.80;;;;;;;17.03;59.53;100760.70;109232;276;38348;-73
2023/10/05 10:58:23;;;;;;;8.80;4.00;;;;;;;16.98;59.49;100753.96;108537;276;611591;-72
2023/10/05 11:01:03;;;;;;;14.00;5.00;;;;;;;16.96;59.44;100747.71;109235;276;38183;-71
2023/10/05 11:03:41;;;;;;;12.90;5.40;;;;;;;16.96;59.41;100741.92;109009;276;39763;-72
2023/10/05 11:06:23;;;;;;;9.90;4.60;;;;;;;16.98;59.75;100740.35;109293;276;38438;-72
2023/10/05 11:08:59;;;;;;;10.70;4.50;;;;;;;17.00;59.32;100737.09;109281;276;38646;-71
2023/10/05 11:11:42;;;;;;;11.30;4.00;;;;;;;17.00;59.73;100735.45;109303;276;38300;-72
2023/10/05 11:14:31;;;;;;;11.00;4.30;;;;;;;17.01;60.08;100735.78;109291;276;38161;-71
2023/10/05 11:17:15;;;;;;;11.00;4.20;;;;;;;17.05;60.39;100732.74;109271;276;38663;-71
2023/10/05 11:20:12;;;;;;;8.30;3.90;;;;;;;17.08;60.14;100727.77;109328;276;38231;-71
2023/10/05 11:22:55;;;;;;;9.20;4.10;;;;;;;17.07;60.06;100726.66;109257;276;38185;-70
2023/10/05 11:25:35;;;;;;;7.60;4.30;;;;;;;17.06;60.07;100712.96;109309;276;38195;-72
2023/10/05 11:28:12;;;;;;;6.60;3.60;;;;;;;17.08;59.94;100717.60;109019;276;38242;-70
2023/10/05 11:30:48;;;;;;;9.20;3.90;;;;;;;17.07;59.56;100723.65;109234;276;39320;-71
2023/10/05 11:33:25;;;;;;;7.10;3.80;;;;;;;17.05;59.43;100726.55;108910;276;38964;-71
2023/10/05 11:36:08;;;;;;;8.80;4.10;;;;;;;17.05;59.41;100713.55;109174;276;38076;-71
2023/10/05 11:38:43;;;;;;;10.20;4.10;;;;;;;17.04;59.43;100716.41;109022;276;175013;-71
2023/10/05 11:41:23;;;;;;;9.10;3.90;;;;;;;17.03;59.11;100705.34;109159;276;38690;-69
2023/10/05 11:43:58;;;;;;;9.90;3.40;;;;;;;17.02;58.80;100705.41;109191;276;38807;-70
2023/10/05 11:46:46;;;;;;;8.20;3.70;;;;;;;17.01;58.43;100701.60;109026;276;39978;-71
2023/10/05 11:49:20;;;;;;;10.30;4.40;;;;;;;16.99;57.70;100700.64;109044;276;38654;-71
2023/10/05 11:51:57;;;;;;;11.10;4.70;;;;;;;17.01;57.68;100690.29;109188;276;38288;-71
2023/10/05 11:54:34;;;;;;;8.80;4.00;;;;;;;17.03;58.13;100682.42;109166;276;38169;-70
2023/10/05 11:57:09;;;;;;;7.20;3.70;;;;;;;17.07;58.34;100685.05;109098;276;174989;-71
2023/10/05 11:59:45;;;;;;;9.60;4.10;;;;;;;17.12;58.70;100686.32;109100;276;172306;-72
2023/10/05 12:02:22;;;;;;;10.30;3.70;;;;;;;17.15;58.31;100688.27;109187;276;38719;-71
2023/10/05 12:04:58;;;;;;;;;;;;;;;17.17;58.17;100689.91;109101;276;175331;-70
2023/10/05 12:07:32;;;;;;;9.80;4.10;;;;;;;17.14;58.26;100687.42;108956;276;40150;-70
2023/10/05 12:10:09;;;;;;;8.10;3.50;;;;;;;17.15;58.10;100693.00;109158;276;39281;-71
2023/10/05 12:12:50;;;;;;;7.60;3.70;;;;;;;17.15;57.60;100683.48;109312;276;38164;-71
2023/10/05 12:15:32;;;;;;;7.40;3.90;;;;;;;17.13;57.94;100676.73;109310;276;39674;-70
2023/10/05 12:18:12;;;;;;;8.80;4.00;;;;;;;17.12;58.16;100680.48;109318;276;39920;-71
2023/10/05 12:20:53;;;;;;;8.20;4.20;;;;;;;17.12;58.24;100684.05;109276;276;38167;-71
2023/10/05 12:23:28;;;;;;;9.30;4.20;;;;;;;17.06;57.94;100681.91;109278;276;39338;-71
2023/10/05 12:26:09;;;;;;;8.50;4.20;;;;;;;16.99;57.93;100680.90;109266;276;38166;-70